sensor_id;sensor_type;location;lat;lon;timestamp;temperature;humidity
23347;DHT22;36852;45.466;11.066;2023-09-18T00:01:08;24.80;99.90
23347;DHT22;36852;45.466;11.066;2023-09-18T00:03:36;24.80;99.90
23347;DHT22;36852;45.466;11.066;2023-09-18T00:06:05;24.80;99.90
23347;DHT22;36852;45.466;11.066;2023-09-18T00:08:34;24.80;99.90
23347;DHT22;36852;45.466;11.066;2023-09-18T00:11:04;24.80;99.90
23347;DHT22;36852;45.466;11.066;2023-09-18T00:13:32;24.80;99.90
23347;DHT22;36852;45.466;11.066;2023-09-18T00:16:01;24.80;99.90
23347;DHT22;36852;45.466;11.066;2023-09-18T00:18:31;24.80;99.90
23347;DHT22;36852;45.466;11.066;2023-09-18T00:21:11;24.70;99.90
23347;DHT22;36852;45.466;11.066;2023-09-18T00:23:39;24.70;99.90
23347;DHT22;36852;45.466;11.066;2023-09-18T00:26:08;24.70;99.90
23347;DHT22;36852;45.466;11.066;2023-09-18T00:28:39;24.70;99.90
23347;DHT22;36852;45.466;11.066;2023-09-18T00:31:09;24.70;99.90
23347;DHT22;36852;45.466;11.066;2023-09-18T00:33:37;24.60;99.90
23347;DHT22;36852;45.466;11.066;2023-09-18T00:36:06;24.60;99.90
23347;DHT22;36852;45.466;11.066;2023-09-18T00:38:34;24.70;99.90
23347;DHT22;36852;45.466;11.066;2023-09-18T00:41:02;24.60;99.90
23347;DHT22;36852;45.466;11.066;2023-09-18T00:43:31;24.60;99.90
23347;DHT22;36852;45.466;11.066;2023-09-18T00:45:59;24.60;99.90
23347;DHT22;36852;45.466;11.066;2023-09-18T00:48:27;24.60;99.90
23347;DHT22;36852;45.466;11.066;2023-09-18T00:50:56;24.60;99.90
23347;DHT22;36852;45.466;11.066;2023-09-18T00:53:28;24.60;99.90
23347;DHT22;36852;45.466;11.066;2023-09-18T00:55:57;24.60;99.90
23347;DHT22;36852;45.466;11.066;2023-09-18T00:58:28;24.50;99.90
23347;DHT22;36852;45.466;11.066;2023-09-18T01:00:57;24.50;99.90
23347;DHT22;36852;45.466;11.066;2023-09-18T01:03:26;24.50;99.90
23347;DHT22;36852;45.466;11.066;2023-09-18T01:05:54;24.50;99.90
23347;DHT22;36852;45.466;11.066;2023-09-18T01:08:24;24.50;99.90
23347;DHT22;36852;45.466;11.066;2023-09-18T01:13:51;24.50;99.90
23347;DHT22;36852;45.466;11.066;2023-09-18T01:16:24;24.50;99.90
23347;DHT22;36852;45.466;11.066;2023-09-18T01:18:50;24.50;99.90
23347;DHT22;36852;45.466;11.066;2023-09-18T01:21:20;24.50;99.90
23347;DHT22;36852;45.466;11.066;2023-09-18T01:23:51;24.40;99.90
23347;DHT22;36852;45.466;11.066;2023-09-18T01:26:20;24.50;99.90
23347;DHT22;36852;45.466;11.066;2023-09-18T01:28:49;24.50;99.90
23347;DHT22;36852;45.466;11.066;2023-09-18T01:31:17;24.50;99.90
23347;DHT22;36852;45.466;11.066;2023-09-18T01:33:46;24.50;99.90
23347;DHT22;36852;45.466;11.066;2023-09-18T01:36:16;24.50;99.90
23347;DHT22;36852;45.466;11.066;2023-09-18T01:38:45;24.40;99.90
23347;DHT22;36852;45.466;11.066;2023-09-18T01:41:15;24.40;99.90
23347;DHT22;36852;45.466;11.066;2023-09-18T01:43:44;24.40;99.90
23347;DHT22;36852;45.466;11.066;2023-09-18T01:46:13;24.40;99.90
23347;DHT22;36852;45.466;11.066;2023-09-18T01:48:46;24.40;99.90
23347;DHT22;36852;45.466;11.066;2023-09-18T01:51:15;24.40;99.90
23347;DHT22;36852;45.466;11.066;2023-09-18T01:53:43;24.40;99.90
23347;DHT22;36852;45.466;11.066;2023-09-18T01:56:12;24.40;99.90
23347;DHT22;36852;45.466;11.066;2023-09-18T01:58:40;24.40;99.90
23347;DHT22;36852;45.466;11.066;2023-09-18T02:01:09;24.40;99.90
23347;DHT22;36852;45.466;11.066;2023-09-18T02:03:39;24.40;99.90
23347;DHT22;36852;45.466;11.066;2023-09-18T02:06:10;24.40;99.90
23347;DHT22;36852;45.466;11.066;2023-09-18T02:08:39;24.40;99.90
23347;DHT22;36852;45.466;11.066;2023-09-18T02:13:49;24.40;99.90
23347;DHT22;36852;45.466;11.066;2023-09-18T02:19:12;24.40;99.90
23347;DHT22;36852;45.466;11.066;2023-09-18T02:21:44;24.40;99.90
23347;DHT22;36852;45.466;11.066;2023-09-18T02:24:15;24.40;99.90
23347;DHT22;36852;45.466;11.066;2023-09-18T02:26:44;24.40;99.90
23347;DHT22;36852;45.466;11.066;2023-09-18T02:29:12;24.40;99.90
23347;DHT22;36852;45.466;11.066;2023-09-18T02:31:42;24.40;99.90
23347;DHT22;36852;45.466;11.066;2023-09-18T02:34:11;24.40;99.90
23347;DHT22;36852;45.466;11.066;2023-09-18T02:36:40;24.40;99.90
23347;DHT22;36852;45.466;11.066;2023-09-18T02:39:09;24.30;99.90
23347;DHT22;36852;45.466;11.066;2023-09-18T02:41:38;24.40;99.90
23347;DHT22;36852;45.466;11.066;2023-09-18T02:44:06;24.30;99.90
23347;DHT22;36852;45.466;11.066;2023-09-18T02:46:36;24.30;99.90
23347;DHT22;36852;45.466;11.066;2023-09-18T02:49:04;24.30;99.90
23347;DHT22;36852;45.466;11.066;2023-09-18T02:51:33;24.40;99.90
23347;DHT22;36852;45.466;11.066;2023-09-18T02:54:02;24.30;99.90
23347;DHT22;36852;45.466;11.066;2023-09-18T02:56:31;24.30;99.90
23347;DHT22;36852;45.466;11.066;2023-09-18T02:59:00;24.40;99.90
23347;DHT22;36852;45.466;11.066;2023-09-18T03:01:29;24.30;99.90
23347;DHT22;36852;45.466;11.066;2023-09-18T03:03:57;24.30;99.90
23347;DHT22;36852;45.466;11.066;2023-09-18T03:06:25;24.30;99.90
23347;DHT22;36852;45.466;11.066;2023-09-18T03:08:53;24.30;99.90
23347;DHT22;36852;45.466;11.066;2023-09-18T03:11:22;24.30;99.90
23347;DHT22;36852;45.466;11.066;2023-09-18T03:13:51;24.20;99.90
23347;DHT22;36852;45.466;11.066;2023-09-18T03:16:20;24.30;99.90
23347;DHT22;36852;45.466;11.066;2023-09-18T03:18:49;24.30;99.90
23347;DHT22;36852;45.466;11.066;2023-09-18T03:21:18;24.30;99.90
23347;DHT22;36852;45.466;11.066;2023-09-18T03:23:46;24.30;99.90
23347;DHT22;36852;45.466;11.066;2023-09-18T03:26:14;24.30;99.90
23347;DHT22;36852;45.466;11.066;2023-09-18T03:28:44;24.30;99.90
23347;DHT22;36852;45.466;11.066;2023-09-18T03:31:12;24.30;99.90
23347;DHT22;36852;45.466;11.066;2023-09-18T03:33:41;24.30;99.90
23347;DHT22;36852;45.466;11.066;2023-09-18T03:36:09;24.30;99.90
23347;DHT22;36852;45.466;11.066;2023-09-18T03:38:39;24.30;99.90
23347;DHT22;36852;45.466;11.066;2023-09-18T03:41:07;24.30;99.90
23347;DHT22;36852;45.466;11.066;2023-09-18T03:43:35;24.30;99.90
23347;DHT22;36852;45.466;11.066;2023-09-18T03:46:05;24.30;99.90
23347;DHT22;36852;45.466;11.066;2023-09-18T03:48:35;24.30;99.90
23347;DHT22;36852;45.466;11.066;2023-09-18T03:51:06;24.30;99.90
23347;DHT22;36852;45.466;11.066;2023-09-18T03:53:37;24.30;99.90
23347;DHT22;36852;45.466;11.066;2023-09-18T03:56:06;24.30;99.90
23347;DHT22;36852;45.466;11.066;2023-09-18T03:58:36;24.30;99.90
23347;DHT22;36852;45.466;11.066;2023-09-18T04:01:04;24.30;99.90
23347;DHT22;36852;45.466;11.066;2023-09-18T04:03:33;24.30;99.90
23347;DHT22;36852;45.466;11.066;2023-09-18T04:06:01;24.20;99.90
23347;DHT22;36852;45.466;11.066;2023-09-18T04:08:33;24.30;99.90
23347;DHT22;36852;45.466;11.066;2023-09-18T04:11:01;24.20;99.90
23347;DHT22;36852;45.466;11.066;2023-09-18T04:13:32;24.20;99.90
23347;DHT22;36852;45.466;11.066;2023-09-18T04:16:01;24.20;99.90
23347;DHT22;36852;45.466;11.066;2023-09-18T04:18:31;24.20;99.90
23347;DHT22;36852;45.466;11.066;2023-09-18T04:21:00;24.20;99.90
23347;DHT22;36852;45.466;11.066;2023-09-18T04:23:28;24.20;99.90
23347;DHT22;36852;45.466;11.066;2023-09-18T04:25:58;24.20;99.90
23347;DHT22;36852;45.466;11.066;2023-09-18T04:28:27;24.10;99.90
23347;DHT22;36852;45.466;11.066;2023-09-18T04:30:56;24.10;99.90
23347;DHT22;36852;45.466;11.066;2023-09-18T04:33:25;24.20;99.90
23347;DHT22;36852;45.466;11.066;2023-09-18T04:35:53;24.20;99.90
23347;DHT22;36852;45.466;11.066;2023-09-18T04:38:23;24.20;99.90
23347;DHT22;36852;45.466;11.066;2023-09-18T04:40:59;24.20;99.90
23347;DHT22;36852;45.466;11.066;2023-09-18T04:43:28;24.20;99.90
23347;DHT22;36852;45.466;11.066;2023-09-18T04:46:00;24.20;99.90
23347;DHT22;36852;45.466;11.066;2023-09-18T04:48:32;24.20;99.90
23347;DHT22;36852;45.466;11.066;2023-09-18T04:51:01;24.20;99.90
23347;DHT22;36852;45.466;11.066;2023-09-18T04:53:32;24.10;99.90
23347;DHT22;36852;45.466;11.066;2023-09-18T04:56:00;24.10;99.90
23347;DHT22;36852;45.466;11.066;2023-09-18T04:58:30;24.10;99.90
23347;DHT22;36852;45.466;11.066;2023-09-18T05:00:59;24.10;99.90
23347;DHT22;36852;45.466;11.066;2023-09-18T05:03:28;24.10;99.90
23347;DHT22;36852;45.466;11.066;2023-09-18T05:05:57;24.10;99.90
23347;DHT22;36852;45.466;11.066;2023-09-18T05:08:26;24.10;99.90
23347;DHT22;36852;45.466;11.066;2023-09-18T05:10:55;24.10;99.90
23347;DHT22;36852;45.466;11.066;2023-09-18T05:13:26;24.20;99.90
23347;DHT22;36852;45.466;11.066;2023-09-18T05:18:36;24.20;99.90
23347;DHT22;36852;45.466;11.066;2023-09-18T05:21:06;24.20;99.90
23347;DHT22;36852;45.466;11.066;2023-09-18T05:23:38;24.20;99.90
23347;DHT22;36852;45.466;11.066;2023-09-18T05:26:06;24.20;99.90
23347;DHT22;36852;45.466;11.066;2023-09-18T05:28:34;24.20;99.90
23347;DHT22;36852;45.466;11.066;2023-09-18T05:31:04;24.20;99.90
23347;DHT22;36852;45.466;11.066;2023-09-18T05:33:33;24.30;99.90
23347;DHT22;36852;45.466;11.066;2023-09-18T05:36:02;24.30;99.90
23347;DHT22;36852;45.466;11.066;2023-09-18T05:38:30;24.30;99.90
23347;DHT22;36852;45.466;11.066;2023-09-18T05:41:02;24.30;99.90
23347;DHT22;36852;45.466;11.066;2023-09-18T05:43:32;24.30;99.90
23347;DHT22;36852;45.466;11.066;2023-09-18T05:46:01;24.40;99.90
23347;DHT22;36852;45.466;11.066;2023-09-18T05:48:30;24.40;99.90
23347;DHT22;36852;45.466;11.066;2023-09-18T05:50:58;24.40;99.90
23347;DHT22;36852;45.466;11.066;2023-09-18T05:53:28;24.40;99.90
23347;DHT22;36852;45.466;11.066;2023-09-18T05:55:58;24.40;99.90
23347;DHT22;36852;45.466;11.066;2023-09-18T05:58:29;24.50;99.90
23347;DHT22;36852;45.466;11.066;2023-09-18T06:00:59;24.50;99.90
23347;DHT22;36852;45.466;11.066;2023-09-18T06:03:28;24.50;99.90
23347;DHT22;36852;45.466;11.066;2023-09-18T06:05:59;24.50;99.90
23347;DHT22;36852;45.466;11.066;2023-09-18T06:08:28;24.60;99.90
23347;DHT22;36852;45.466;11.066;2023-09-18T06:10:57;24.60;99.90
23347;DHT22;36852;45.466;11.066;2023-09-18T06:13:27;24.60;99.90
23347;DHT22;36852;45.466;11.066;2023-09-18T06:15:55;24.60;99.90
23347;DHT22;36852;45.466;11.066;2023-09-18T06:18:24;24.60;99.90
23347;DHT22;36852;45.466;11.066;2023-09-18T06:20:52;24.60;99.90
23347;DHT22;36852;45.466;11.066;2023-09-18T06:23:21;24.60;99.90
23347;DHT22;36852;45.466;11.066;2023-09-18T06:25:50;24.60;99.90
23347;DHT22;36852;45.466;11.066;2023-09-18T06:28:23;24.70;99.90
23347;DHT22;36852;45.466;11.066;2023-09-18T06:30:51;24.70;99.90
23347;DHT22;36852;45.466;11.066;2023-09-18T06:33:22;24.70;99.90
23347;DHT22;36852;45.466;11.066;2023-09-18T06:35:50;24.70;99.90
23347;DHT22;36852;45.466;11.066;2023-09-18T06:38:20;24.70;99.90
23347;DHT22;36852;45.466;11.066;2023-09-18T06:40:48;24.80;99.90
23347;DHT22;36852;45.466;11.066;2023-09-18T06:43:17;24.80;99.90
23347;DHT22;36852;45.466;11.066;2023-09-18T06:45:46;24.80;99.90
23347;DHT22;36852;45.466;11.066;2023-09-18T06:48:15;24.80;99.90
23347;DHT22;36852;45.466;11.066;2023-09-18T06:50:44;24.80;99.90
23347;DHT22;36852;45.466;11.066;2023-09-18T06:53:12;24.80;99.90
23347;DHT22;36852;45.466;11.066;2023-09-18T06:55:41;24.80;99.90
23347;DHT22;36852;45.466;11.066;2023-09-18T06:58:09;24.80;99.90
23347;DHT22;36852;45.466;11.066;2023-09-18T07:00:38;24.80;99.90
23347;DHT22;36852;45.466;11.066;2023-09-18T07:03:07;24.80;99.90
23347;DHT22;36852;45.466;11.066;2023-09-18T07:05:41;24.80;99.90
23347;DHT22;36852;45.466;11.066;2023-09-18T07:08:11;24.80;99.90
23347;DHT22;36852;45.466;11.066;2023-09-18T07:10:40;24.80;99.90
23347;DHT22;36852;45.466;11.066;2023-09-18T07:13:08;24.80;99.90
23347;DHT22;36852;45.466;11.066;2023-09-18T07:15:37;24.90;99.90
23347;DHT22;36852;45.466;11.066;2023-09-18T07:18:05;24.90;99.90
23347;DHT22;36852;45.466;11.066;2023-09-18T07:20:34;24.90;99.90
23347;DHT22;36852;45.466;11.066;2023-09-18T07:23:04;24.90;99.90
23347;DHT22;36852;45.466;11.066;2023-09-18T07:25:32;24.90;99.90
23347;DHT22;36852;45.466;11.066;2023-09-18T07:28:00;24.90;99.90
23347;DHT22;36852;45.466;11.066;2023-09-18T07:30:29;24.90;99.90
23347;DHT22;36852;45.466;11.066;2023-09-18T07:32:58;24.90;99.90
23347;DHT22;36852;45.466;11.066;2023-09-18T07:35:27;24.90;99.90
23347;DHT22;36852;45.466;11.066;2023-09-18T07:37:55;24.90;99.90
23347;DHT22;36852;45.466;11.066;2023-09-18T07:40:26;24.90;99.90
23347;DHT22;36852;45.466;11.066;2023-09-18T07:42:54;25.00;99.90
23347;DHT22;36852;45.466;11.066;2023-09-18T07:45:24;24.90;99.90
23347;DHT22;36852;45.466;11.066;2023-09-18T07:47:53;24.90;99.90
23347;DHT22;36852;45.466;11.066;2023-09-18T07:50:22;24.90;99.90
23347;DHT22;36852;45.466;11.066;2023-09-18T07:52:51;24.90;99.90
23347;DHT22;36852;45.466;11.066;2023-09-18T07:55:21;24.90;99.90
23347;DHT22;36852;45.466;11.066;2023-09-18T07:57:49;24.90;99.90
23347;DHT22;36852;45.466;11.066;2023-09-18T08:00:19;24.90;99.90
23347;DHT22;36852;45.466;11.066;2023-09-18T08:02:47;24.90;99.90
23347;DHT22;36852;45.466;11.066;2023-09-18T08:05:20;24.90;99.90
23347;DHT22;36852;45.466;11.066;2023-09-18T08:07:54;24.90;99.90
23347;DHT22;36852;45.466;11.066;2023-09-18T08:10:26;25.00;99.90
23347;DHT22;36852;45.466;11.066;2023-09-18T08:13:11;25.00;99.90
23347;DHT22;36852;45.466;11.066;2023-09-18T08:15:39;25.10;99.90
23347;DHT22;36852;45.466;11.066;2023-09-18T08:18:08;25.10;99.90
23347;DHT22;36852;45.466;11.066;2023-09-18T08:20:41;25.20;99.90
23347;DHT22;36852;45.466;11.066;2023-09-18T08:23:11;25.20;99.90
23347;DHT22;36852;45.466;11.066;2023-09-18T08:25:40;25.30;99.90
23347;DHT22;36852;45.466;11.066;2023-09-18T08:28:10;25.40;99.90
23347;DHT22;36852;45.466;11.066;2023-09-18T08:30:38;25.50;99.90
23347;DHT22;36852;45.466;11.066;2023-09-18T08:33:09;25.50;99.90
23347;DHT22;36852;45.466;11.066;2023-09-18T08:35:39;25.50;99.90
23347;DHT22;36852;45.466;11.066;2023-09-18T08:38:07;25.60;99.90
23347;DHT22;36852;45.466;11.066;2023-09-18T08:40:40;25.60;99.90
23347;DHT22;36852;45.466;11.066;2023-09-18T08:43:11;25.60;99.90
23347;DHT22;36852;45.466;11.066;2023-09-18T08:45:51;25.60;99.90
23347;DHT22;36852;45.466;11.066;2023-09-18T08:48:18;25.70;99.90
23347;DHT22;36852;45.466;11.066;2023-09-18T08:50:51;25.70;99.90
23347;DHT22;36852;45.466;11.066;2023-09-18T08:53:19;25.70;99.90
23347;DHT22;36852;45.466;11.066;2023-09-18T08:55:48;25.70;99.90
23347;DHT22;36852;45.466;11.066;2023-09-18T08:58:16;25.80;99.90
23347;DHT22;36852;45.466;11.066;2023-09-18T09:00:47;25.80;99.90
23347;DHT22;36852;45.466;11.066;2023-09-18T09:03:18;25.80;99.90
23347;DHT22;36852;45.466;11.066;2023-09-18T09:05:46;25.80;99.90
23347;DHT22;36852;45.466;11.066;2023-09-18T09:08:15;25.80;99.90
23347;DHT22;36852;45.466;11.066;2023-09-18T09:10:46;25.80;99.90
23347;DHT22;36852;45.466;11.066;2023-09-18T09:13:14;25.80;99.90
23347;DHT22;36852;45.466;11.066;2023-09-18T09:15:46;25.80;99.90
23347;DHT22;36852;45.466;11.066;2023-09-18T09:18:15;25.80;99.90
23347;DHT22;36852;45.466;11.066;2023-09-18T09:20:58;25.80;99.90
23347;DHT22;36852;45.466;11.066;2023-09-18T09:23:29;25.80;99.90
23347;DHT22;36852;45.466;11.066;2023-09-18T09:26:13;25.80;99.90
23347;DHT22;36852;45.466;11.066;2023-09-18T09:28:43;25.80;99.90
23347;DHT22;36852;45.466;11.066;2023-09-18T09:31:27;25.90;99.90
23347;DHT22;36852;45.466;11.066;2023-09-18T09:33:55;25.90;99.90
23347;DHT22;36852;45.466;11.066;2023-09-18T09:36:26;26.00;99.90
23347;DHT22;36852;45.466;11.066;2023-09-18T09:38:56;26.00;99.90
23347;DHT22;36852;45.466;11.066;2023-09-18T09:41:27;26.00;99.90
23347;DHT22;36852;45.466;11.066;2023-09-18T09:43:58;26.00;99.90
23347;DHT22;36852;45.466;11.066;2023-09-18T09:46:26;26.00;99.90
23347;DHT22;36852;45.466;11.066;2023-09-18T09:49:02;26.00;99.90
23347;DHT22;36852;45.466;11.066;2023-09-18T09:51:32;25.90;99.90
23347;DHT22;36852;45.466;11.066;2023-09-18T09:54:01;25.90;99.90
23347;DHT22;36852;45.466;11.066;2023-09-18T09:56:46;25.80;99.90
23347;DHT22;36852;45.466;11.066;2023-09-18T09:59:18;25.80;99.90
23347;DHT22;36852;45.466;11.066;2023-09-18T10:01:48;25.80;99.90
23347;DHT22;36852;45.466;11.066;2023-09-18T10:04:19;25.70;99.90
23347;DHT22;36852;45.466;11.066;2023-09-18T10:07:04;25.70;99.90
23347;DHT22;36852;45.466;11.066;2023-09-18T10:09:29;25.70;99.90
23347;DHT22;36852;45.466;11.066;2023-09-18T10:11:58;25.70;99.90
23347;DHT22;36852;45.466;11.066;2023-09-18T10:14:32;25.70;99.90
23347;DHT22;36852;45.466;11.066;2023-09-18T10:17:16;25.70;99.90
23347;DHT22;36852;45.466;11.066;2023-09-18T10:22:30;25.80;99.90
23347;DHT22;36852;45.466;11.066;2023-09-18T10:25:10;25.80;99.90
23347;DHT22;36852;45.466;11.066;2023-09-18T10:27:39;25.70;99.90
23347;DHT22;36852;45.466;11.066;2023-09-18T10:30:09;25.70;99.90
23347;DHT22;36852;45.466;11.066;2023-09-18T10:32:40;25.80;99.90
23347;DHT22;36852;45.466;11.066;2023-09-18T10:35:08;25.80;99.90
23347;DHT22;36852;45.466;11.066;2023-09-18T10:37:41;25.80;99.90
23347;DHT22;36852;45.466;11.066;2023-09-18T10:40:10;25.80;99.90
23347;DHT22;36852;45.466;11.066;2023-09-18T10:42:41;25.80;99.90
23347;DHT22;36852;45.466;11.066;2023-09-18T10:45:11;25.90;99.90
23347;DHT22;36852;45.466;11.066;2023-09-18T10:47:42;25.90;99.90
23347;DHT22;36852;45.466;11.066;2023-09-18T10:50:24;25.90;99.90
23347;DHT22;36852;45.466;11.066;2023-09-18T10:52:57;25.90;99.90
23347;DHT22;36852;45.466;11.066;2023-09-18T10:55:26;26.00;99.90
23347;DHT22;36852;45.466;11.066;2023-09-18T10:57:57;26.00;99.90
23347;DHT22;36852;45.466;11.066;2023-09-18T11:00:26;26.00;99.90
23347;DHT22;36852;45.466;11.066;2023-09-18T11:03:13;26.00;99.90
23347;DHT22;36852;45.466;11.066;2023-09-18T11:05:46;26.00;99.90
23347;DHT22;36852;45.466;11.066;2023-09-18T11:08:32;26.10;99.90
23347;DHT22;36852;45.466;11.066;2023-09-18T11:11:07;26.10;99.90
23347;DHT22;36852;45.466;11.066;2023-09-18T11:19:07;26.20;99.90
23347;DHT22;36852;45.466;11.066;2023-09-18T11:21:35;26.30;99.90
23347;DHT22;36852;45.466;11.066;2023-09-18T11:26:42;26.30;99.90
23347;DHT22;36852;45.466;11.066;2023-09-18T11:29:21;26.40;99.90
23347;DHT22;36852;45.466;11.066;2023-09-18T11:31:51;26.40;99.90
23347;DHT22;36852;45.466;11.066;2023-09-18T11:34:24;26.50;99.90
23347;DHT22;36852;45.466;11.066;2023-09-18T11:37:20;26.50;99.90
23347;DHT22;36852;45.466;11.066;2023-09-18T11:39:49;26.50;99.90
23347;DHT22;36852;45.466;11.066;2023-09-18T11:42:20;26.50;99.90
23347;DHT22;36852;45.466;11.066;2023-09-18T11:44:53;26.60;99.90
23347;DHT22;36852;45.466;11.066;2023-09-18T11:47:24;26.60;99.90
23347;DHT22;36852;45.466;11.066;2023-09-18T11:49:57;26.70;99.90
23347;DHT22;36852;45.466;11.066;2023-09-18T11:52:27;26.70;99.90
23347;DHT22;36852;45.466;11.066;2023-09-18T11:54:58;26.80;99.90
23347;DHT22;36852;45.466;11.066;2023-09-18T11:57:29;26.90;99.90
23347;DHT22;36852;45.466;11.066;2023-09-18T11:59:59;26.90;99.90
23347;DHT22;36852;45.466;11.066;2023-09-18T12:02:31;27.00;99.90
23347;DHT22;36852;45.466;11.066;2023-09-18T12:05:16;27.00;99.90
23347;DHT22;36852;45.466;11.066;2023-09-18T12:07:46;27.10;99.90
23347;DHT22;36852;45.466;11.066;2023-09-18T12:10:19;27.20;99.90
23347;DHT22;36852;45.466;11.066;2023-09-18T12:12:49;27.20;99.90
23347;DHT22;36852;45.466;11.066;2023-09-18T12:15:18;27.30;99.90
23347;DHT22;36852;45.466;11.066;2023-09-18T12:17:55;27.40;99.90
23347;DHT22;36852;45.466;11.066;2023-09-18T12:20:23;27.40;99.90
23347;DHT22;36852;45.466;11.066;2023-09-18T12:22:55;27.40;99.90
23347;DHT22;36852;45.466;11.066;2023-09-18T12:25:23;27.40;99.90
23347;DHT22;36852;45.466;11.066;2023-09-18T12:27:54;27.40;99.90
23347;DHT22;36852;45.466;11.066;2023-09-18T12:30:25;27.40;99.90
23347;DHT22;36852;45.466;11.066;2023-09-18T12:32:57;27.40;99.90
23347;DHT22;36852;45.466;11.066;2023-09-18T12:35:26;27.40;99.90
23347;DHT22;36852;45.466;11.066;2023-09-18T12:37:58;27.30;99.90
23347;DHT22;36852;45.466;11.066;2023-09-18T12:40:28;27.20;99.90
23347;DHT22;36852;45.466;11.066;2023-09-18T12:43:01;27.20;99.90
23347;DHT22;36852;45.466;11.066;2023-09-18T12:45:30;27.20;99.90
23347;DHT22;36852;45.466;11.066;2023-09-18T12:47:59;27.20;99.90
23347;DHT22;36852;45.466;11.066;2023-09-18T12:50:28;27.10;99.90
23347;DHT22;36852;45.466;11.066;2023-09-18T12:53:12;27.10;99.90
23347;DHT22;36852;45.466;11.066;2023-09-18T12:55:41;27.10;99.90
23347;DHT22;36852;45.466;11.066;2023-09-18T12:58:11;27.00;99.90
23347;DHT22;36852;45.466;11.066;2023-09-18T13:00:44;27.00;99.90
23347;DHT22;36852;45.466;11.066;2023-09-18T13:03:14;26.90;99.90
23347;DHT22;36852;45.466;11.066;2023-09-18T13:05:42;26.90;99.90
23347;DHT22;36852;45.466;11.066;2023-09-18T13:08:11;26.90;99.90
23347;DHT22;36852;45.466;11.066;2023-09-18T13:10:44;26.80;99.90
23347;DHT22;36852;45.466;11.066;2023-09-18T13:13:17;26.80;99.90
23347;DHT22;36852;45.466;11.066;2023-09-18T13:15:45;26.70;99.90
23347;DHT22;36852;45.466;11.066;2023-09-18T13:18:19;26.70;99.90
23347;DHT22;36852;45.466;11.066;2023-09-18T13:20:50;26.80;99.90
23347;DHT22;36852;45.466;11.066;2023-09-18T13:23:19;26.70;99.90
23347;DHT22;36852;45.466;11.066;2023-09-18T13:25:49;26.70;99.90
23347;DHT22;36852;45.466;11.066;2023-09-18T13:28:17;26.60;99.90
23347;DHT22;36852;45.466;11.066;2023-09-18T13:30:47;26.60;99.90
23347;DHT22;36852;45.466;11.066;2023-09-18T13:33:16;26.60;99.90
23347;DHT22;36852;45.466;11.066;2023-09-18T13:35:45;26.60;99.90
23347;DHT22;36852;45.466;11.066;2023-09-18T13:38:13;26.50;99.90
23347;DHT22;36852;45.466;11.066;2023-09-18T13:40:47;26.50;99.90
23347;DHT22;36852;45.466;11.066;2023-09-18T13:43:15;26.50;99.90
23347;DHT22;36852;45.466;11.066;2023-09-18T13:45:44;26.50;99.90
23347;DHT22;36852;45.466;11.066;2023-09-18T13:48:12;26.40;99.90
23347;DHT22;36852;45.466;11.066;2023-09-18T13:50:40;26.40;99.90
23347;DHT22;36852;45.466;11.066;2023-09-18T13:53:08;26.40;99.90
23347;DHT22;36852;45.466;11.066;2023-09-18T13:55:37;26.40;99.90
23347;DHT22;36852;45.466;11.066;2023-09-18T13:58:04;26.40;99.90
23347;DHT22;36852;45.466;11.066;2023-09-18T14:00:33;26.40;99.90
23347;DHT22;36852;45.466;11.066;2023-09-18T14:03:02;26.30;99.90
23347;DHT22;36852;45.466;11.066;2023-09-18T14:05:30;26.30;99.90
23347;DHT22;36852;45.466;11.066;2023-09-18T14:08:02;26.20;99.90
23347;DHT22;36852;45.466;11.066;2023-09-18T14:10:31;26.20;99.90
23347;DHT22;36852;45.466;11.066;2023-09-18T14:13:02;26.20;99.90
23347;DHT22;36852;45.466;11.066;2023-09-18T14:15:30;26.20;99.90
23347;DHT22;36852;45.466;11.066;2023-09-18T14:17:58;26.10;99.90
23347;DHT22;36852;45.466;11.066;2023-09-18T14:20:26;26.10;99.90
23347;DHT22;36852;45.466;11.066;2023-09-18T14:22:54;26.10;99.90
23347;DHT22;36852;45.466;11.066;2023-09-18T14:25:23;26.10;99.90
23347;DHT22;36852;45.466;11.066;2023-09-18T14:27:51;26.10;99.90
23347;DHT22;36852;45.466;11.066;2023-09-18T14:30:19;26.00;99.90
23347;DHT22;36852;45.466;11.066;2023-09-18T14:32:49;26.00;99.90
23347;DHT22;36852;45.466;11.066;2023-09-18T14:35:19;26.00;99.90
23347;DHT22;36852;45.466;11.066;2023-09-18T14:37:47;26.00;99.90
23347;DHT22;36852;45.466;11.066;2023-09-18T14:40:15;26.00;99.90
23347;DHT22;36852;45.466;11.066;2023-09-18T14:42:43;26.00;99.90
23347;DHT22;36852;45.466;11.066;2023-09-18T14:45:11;26.00;99.90
23347;DHT22;36852;45.466;11.066;2023-09-18T14:47:43;26.00;99.90
23347;DHT22;36852;45.466;11.066;2023-09-18T14:50:14;26.00;99.90
23347;DHT22;36852;45.466;11.066;2023-09-18T14:52:42;25.90;99.90
23347;DHT22;36852;45.466;11.066;2023-09-18T14:55:14;25.90;99.90
23347;DHT22;36852;45.466;11.066;2023-09-18T14:57:43;25.90;99.90
23347;DHT22;36852;45.466;11.066;2023-09-18T15:00:16;25.90;99.90
23347;DHT22;36852;45.466;11.066;2023-09-18T15:02:44;25.90;99.90
23347;DHT22;36852;45.466;11.066;2023-09-18T15:05:12;25.90;99.90
23347;DHT22;36852;45.466;11.066;2023-09-18T15:07:45;25.90;99.90
23347;DHT22;36852;45.466;11.066;2023-09-18T15:10:17;25.80;99.90
23347;DHT22;36852;45.466;11.066;2023-09-18T15:12:47;25.80;99.90
23347;DHT22;36852;45.466;11.066;2023-09-18T15:15:16;25.70;99.90
23347;DHT22;36852;45.466;11.066;2023-09-18T15:17:44;25.70;99.90
23347;DHT22;36852;45.466;11.066;2023-09-18T15:20:12;25.70;99.90
23347;DHT22;36852;45.466;11.066;2023-09-18T15:22:42;25.60;99.90
23347;DHT22;36852;45.466;11.066;2023-09-18T15:25:10;25.60;99.90
23347;DHT22;36852;45.466;11.066;2023-09-18T15:27:40;25.60;99.90
23347;DHT22;36852;45.466;11.066;2023-09-18T15:30:09;25.50;99.90
23347;DHT22;36852;45.466;11.066;2023-09-18T15:32:51;25.60;99.90
23347;DHT22;36852;45.466;11.066;2023-09-18T15:35:25;25.60;99.90
23347;DHT22;36852;45.466;11.066;2023-09-18T15:37:53;25.60;99.90
23347;DHT22;36852;45.466;11.066;2023-09-18T15:40:22;25.60;99.90
23347;DHT22;36852;45.466;11.066;2023-09-18T15:42:53;25.60;99.90
23347;DHT22;36852;45.466;11.066;2023-09-18T15:45:21;25.60;99.90
23347;DHT22;36852;45.466;11.066;2023-09-18T15:47:49;25.70;99.90
23347;DHT22;36852;45.466;11.066;2023-09-18T15:50:17;25.70;99.90
23347;DHT22;36852;45.466;11.066;2023-09-18T15:52:45;25.80;99.90
23347;DHT22;36852;45.466;11.066;2023-09-18T15:55:13;25.90;99.90